Hawarden, United Kingdom
Current Conditions -  °F | °C
As of 12:50 PM on Saturday 25 Oct 2014 (Local Time) from EGNR Reporting Station
Scattered Clouds Scattered Clouds  
Wind Chill: 59°   Ceiling: Unl
Heat Index: 59°   Visibility: 6mi
Dew Point: 50°   Wind: 16mph
Humidity: 72%   Direction: 240°WSW
Pressure: 29.94"   Gusts: NA
Location:  53.18°N, 3.03°W
Report Text: EGNR 251150Z 24014KT 9999 FEW012 SCT020 15/10 Q1014
Loading
Personal Weather Stations






























Interactive Weather Map
Tropical Storm Tracking
New forecast layout! Learn more

10-Day Weather Forecast

Advertisements
Track Severe Weather on mobile